Time;durP1;ratioP1;P1;durP2;ratioP2;P2;SDS_P1;SDS_P2;PMS_P1;PMS_P2;Temp;Humidity;BMP_temperature;BMP_pressure;BME280_temperature;BME280_humidity;BME280_pressure;Samples;Min_cycle;Max_cycle;Signal;HPM_P1;HPM_P2
2022/09/03 00:00:51;;;;;;;1999.90;999.90;;;19.70;24.00;;;;;;5031611;28;20169;-71
2022/09/03 00:03:35;;;;;;;1999.90;999.90;;;19.70;24.10;;;;;;5031674;28;20493;-71
2022/09/03 00:06:15;;;;;;;1999.90;999.90;;;19.60;24.20;;;;;;5031205;28;20410;-71
2022/09/03 00:08:59;;;;;;;1999.90;999.90;;;19.60;24.60;;;;;;5031722;28;20765;-72
2022/09/03 00:11:44;;;;;;;1999.90;999.90;;;19.60;24.90;;;;;;5040600;28;20451;-72
2022/09/03 00:14:19;;;;;;;1999.90;999.90;;;19.50;25.00;;;;;;5040374;28;20400;-72
2022/09/03 00:17:04;;;;;;;1999.90;999.90;;;19.50;25.40;;;;;;5040520;28;20941;-72
2022/09/03 00:19:40;;;;;;;1999.90;999.90;;;19.40;25.90;;;;;;5041523;28;20390;-72
2022/09/03 00:22:12;;;;;;;1999.90;999.90;;;19.40;25.90;;;;;;5042308;28;20430;-72
2022/09/03 00:24:40;;;;;;;1999.90;999.90;;;19.40;26.30;;;;;;5031540;28;20401;-72
2022/09/03 00:27:11;;;;;;;1999.90;999.90;;;19.30;26.50;;;;;;5031233;28;20422;-72
2022/09/03 00:29:45;;;;;;;1999.90;999.90;;;19.30;26.70;;;;;;5031366;28;20424;-72
2022/09/03 00:32:36;;;;;;;1999.90;999.90;;;19.20;26.90;;;;;;5035233;28;20430;-72
2022/09/03 00:35:08;;;;;;;1999.90;999.90;;;19.00;27.00;;;;;;5034998;28;20926;-72
2022/09/03 00:37:34;;;;;;;1999.90;999.90;;;18.90;27.30;;;;;;5034665;28;20434;-72
2022/09/03 00:40:01;;;;;;;1999.90;999.90;;;18.80;27.20;;;;;;5034821;28;20895;-72
2022/09/03 00:42:54;;;;;;;1999.90;999.90;;;18.70;27.70;;;;;;5034670;28;20413;-72
2022/09/03 00:45:28;;;;;;;1999.90;999.90;;;18.50;27.80;;;;;;5034711;28;20389;-72
2022/09/03 00:48:22;;;;;;;1999.90;999.90;;;18.40;28.80;;;;;;5034229;28;20915;-72
2022/09/03 00:51:02;;;;;;;1999.90;999.90;;;18.30;29.80;;;;;;5034468;28;20493;-72
2022/09/03 00:53:36;;;;;;;1999.90;999.90;;;18.20;31.10;;;;;;5034594;28;20504;-71
2022/09/03 00:56:02;;;;;;;1999.90;999.90;;;18.20;32.00;;;;;;5034208;28;20400;-71
2022/09/03 00:58:50;;;;;;;1999.90;999.90;;;18.30;32.30;;;;;;5034412;28;20461;-71
2022/09/03 01:01:23;;;;;;;1999.90;999.90;;;18.30;32.70;;;;;;5034484;28;20650;-71
2022/09/03 01:04:20;;;;;;;1999.90;999.90;;;18.40;33.60;;;;;;5034333;28;20448;-71
2022/09/03 01:07:07;;;;;;;1999.90;999.90;;;18.40;32.90;;;;;;4964536;28;20879;-72
2022/09/03 01:09:59;;;;;;;1999.90;999.90;;;18.50;32.80;;;;;;5034142;28;20493;-72
2022/09/03 01:12:57;;;;;;;1999.90;999.90;;;18.50;32.60;;;;;;5009184;28;20425;-72
2022/09/03 01:15:52;;;;;;;1999.90;999.90;;;18.50;32.60;;;;;;5034150;28;20412;-72
2022/09/03 01:18:17;;;;;;;1999.90;999.90;;;18.50;33.00;;;;;;5033814;28;20938;-71
2022/09/03 01:21:04;;;;;;;1999.90;999.90;;;18.50;33.30;;;;;;5034047;28;20399;-71
2022/09/03 01:24:07;;;;;;;1999.90;999.90;;;18.50;33.80;;;;;;5034092;28;20586;-71
2022/09/03 01:26:54;;;;;;;1999.90;999.90;;;18.50;34.20;;;;;;5033541;28;20421;-71
2022/09/03 01:29:28;;;;;;;1999.90;999.90;;;18.40;34.40;;;;;;5033953;28;20395;-71
2022/09/03 01:32:01;;;;;;;1999.90;999.90;;;18.40;34.70;;;;;;5046521;28;20537;-71
2022/09/03 01:34:56;;;;;;;1999.90;999.90;;;18.40;35.00;;;;;;5047218;28;20464;-72
2022/09/03 01:37:56;;;;;;;1999.90;999.90;;;18.40;35.00;;;;;;5046911;28;20470;-71
2022/09/03 01:40:33;;;;;;;1999.90;999.90;;;18.30;35.50;;;;;;5046654;28;20791;-72
2022/09/03 01:43:04;;;;;;;1999.90;999.90;;;18.30;35.90;;;;;;5038573;28;20426;-71
2022/09/03 01:45:48;;;;;;;1999.90;999.90;;;18.30;36.20;;;;;;5033587;28;20432;-72
2022/09/03 01:48:49;;;;;;;1999.90;999.90;;;18.30;36.20;;;;;;5033656;28;20425;-72
2022/09/03 01:51:23;;;;;;;1999.90;999.90;;;18.30;36.70;;;;;;5033753;28;20460;-72
2022/09/03 01:54:22;;;;;;;1999.90;999.90;;;18.20;36.70;;;;;;5033721;28;20414;-73
2022/09/03 01:56:56;;;;;;;1999.90;999.90;;;18.20;36.70;;;;;;5033225;28;20440;-72
2022/09/03 01:59:31;;;;;;;1999.90;999.90;;;18.10;37.30;;;;;;5033580;28;20405;-72
2022/09/03 02:02:20;;;;;;;1999.90;999.90;;;18.20;38.00;;;;;;5033360;28;20400;-72
2022/09/03 02:05:09;;;;;;;1999.90;999.90;;;18.10;38.10;;;;;;5033434;28;20399;-72
2022/09/03 02:07:39;;;;;;;1999.90;999.90;;;18.00;38.20;;;;;;5032920;28;20444;-72
2022/09/03 02:10:09;;;;;;;1999.90;999.90;;;18.00;38.70;;;;;;5033253;28;20943;-72
2022/09/03 02:12:37;;;;;;;1999.90;999.90;;;18.00;39.30;;;;;;5033033;28;20778;-72
2022/09/03 02:15:08;;;;;;;1999.90;999.90;;;17.90;39.70;;;;;;5033519;28;20377;-72
2022/09/03 02:17:35;;;;;;;1999.90;999.90;;;17.90;40.00;;;;;;5032947;28;21046;-72
2022/09/03 02:20:07;;;;;;;1999.90;999.90;;;17.90;40.30;;;;;;5033209;28;20449;-72
2022/09/03 02:22:33;;;;;;;1999.90;999.90;;;17.90;40.90;;;;;;5033226;28;20451;-72
2022/09/03 02:25:00;;;;;;;1999.90;999.90;;;17.80;41.10;;;;;;5033128;28;20410;-72
2022/09/03 02:27:26;;;;;;;1999.90;999.90;;;17.80;41.60;;;;;;5032928;28;20452;-72
2022/09/03 02:29:52;;;;;;;1999.90;999.90;;;17.80;41.80;;;;;;5032973;28;20436;-72
2022/09/03 02:32:17;;;;;;;1999.90;999.90;;;17.80;42.70;;;;;;5032832;28;20404;-72
2022/09/03 02:34:43;;;;;;;1999.90;999.90;;;17.80;42.90;;;;;;5032755;28;20243;-72
2022/09/03 02:37:14;;;;;;;1999.90;999.90;;;17.70;43.20;;;;;;5032420;28;20707;-72
2022/09/03 02:39:40;;;;;;;1999.90;999.90;;;17.70;43.30;;;;;;5037520;28;20661;-72
2022/09/03 02:42:06;;;;;;;1999.90;999.90;;;17.70;43.90;;;;;;5040890;28;20494;-71
2022/09/03 02:44:36;;;;;;;1999.90;999.90;;;17.70;44.70;;;;;;5047659;28;20170;-72
2022/09/03 02:47:04;;;;;;;1999.90;999.90;;;17.60;45.00;;;;;;5031004;28;20442;-72
2022/09/03 02:49:31;;;;;;;1999.90;999.90;;;17.60;45.60;;;;;;5039933;28;20767;-72
2022/09/03 02:52:08;;;;;;;1999.90;999.90;;;17.60;45.90;;;;;;5019495;28;20465;-72
2022/09/03 02:54:40;;;;;;;1999.90;999.90;;;17.60;45.90;;;;;;5031970;28;20460;-71
2022/09/03 02:57:12;;;;;;;1999.90;999.90;;;17.60;46.50;;;;;;5031977;28;20427;-71
2022/09/03 02:59:40;;;;;;;1999.90;999.90;;;17.60;46.80;;;;;;5032244;28;20402;-71
2022/09/03 03:02:06;;;;;;;1999.90;999.90;;;17.60;47.10;;;;;;5032246;28;20822;-71
2022/09/03 03:04:32;;;;;;;1999.90;999.90;;;17.60;47.20;;;;;;5032177;28;20481;-71
2022/09/03 03:06:58;;;;;;;1999.90;999.90;;;17.50;47.50;;;;;;5031806;28;20557;-71
2022/09/03 03:09:24;;;;;;;1999.90;999.90;;;17.50;47.90;;;;;;5032300;28;20405;-71
2022/09/03 03:11:50;;;;;;;1999.90;999.90;;;17.50;48.50;;;;;;5031946;28;20516;-71
2022/09/03 03:14:17;;;;;;;1999.90;999.90;;;17.50;49.00;;;;;;5032090;28;20220;-71
2022/09/03 03:16:42;;;;;;;1999.90;999.90;;;17.60;49.20;;;;;;5031651;28;20198;-71
2022/09/03 03:19:08;;;;;;;1999.90;999.90;;;17.60;50.20;;;;;;5032004;28;20484;-71
2022/09/03 03:21:34;;;;;;;1999.90;999.90;;;17.60;49.40;;;;;;5031994;28;20453;-70
2022/09/03 03:24:00;;;;;;;1999.90;999.90;;;17.60;49.50;;;;;;5032016;28;20184;-71
2022/09/03 03:26:26;;;;;;;1999.90;999.90;;;17.60;49.90;;;;;;5031698;28;20203;-71
2022/09/03 03:28:56;;;;;;;1999.90;999.90;;;17.60;50.50;;;;;;5031923;28;20494;-71
2022/09/03 03:31:22;;;;;;;1999.90;999.90;;;17.60;50.80;;;;;;5031754;28;20243;-71
2022/09/03 03:33:52;;;;;;;1999.90;999.90;;;17.60;50.40;;;;;;5031805;28;20409;-70
2022/09/03 03:36:19;;;;;;;1999.90;999.90;;;17.60;50.90;;;;;;5031605;28;20818;-72
2022/09/03 03:38:45;;;;;;;1999.90;999.90;;;17.60;51.40;;;;;;5089442;22;21000;-66
2022/09/03 03:41:14;;;;;;;1999.90;999.90;;;17.70;51.50;;;;;;5055363;28;20410;-65
2022/09/03 03:43:40;;;;;;;1999.90;999.90;;;17.60;51.70;;;;;;5051717;28;20210;-66
2022/09/03 03:46:07;;;;;;;1999.90;999.90;;;17.60;51.90;;;;;;5051166;28;20409;-66
2022/09/03 03:48:32;;;;;;;1999.90;999.90;;;17.60;52.40;;;;;;5054892;28;20421;-66
2022/09/03 03:51:07;;;;;;;1999.90;999.90;;;17.60;52.60;;;;;;5057320;28;20954;-66
2022/09/03 03:53:34;;;;;;;1999.90;999.90;;;17.60;52.80;;;;;;5055888;28;20168;-66
2022/09/03 03:56:02;;;;;;;1999.90;999.90;;;17.50;53.30;;;;;;5051330;28;20415;-66
2022/09/03 03:58:31;;;;;;;1999.90;999.90;;;17.50;53.70;;;;;;5051430;28;20848;-66
2022/09/03 04:01:13;;;;;;;1999.90;999.90;;;17.60;54.00;;;;;;5051546;28;20482;-66
2022/09/03 04:03:39;;;;;;;1999.90;999.90;;;17.60;54.00;;;;;;5051505;28;20495;-66
2022/09/03 04:06:05;;;;;;;1999.90;999.90;;;17.60;54.20;;;;;;5053432;28;20890;-66
2022/09/03 04:08:35;;;;;;;1999.90;999.90;;;17.60;54.50;;;;;;5055273;28;20518;-66
2022/09/03 04:11:02;;;;;;;1999.90;999.90;;;17.70;54.60;;;;;;5055256;28;20942;-66
2022/09/03 04:13:33;;;;;;;1999.90;999.90;;;17.70;55.10;;;;;;5055098;28;20496;-66
2022/09/03 04:16:04;;;;;;;1999.90;999.90;;;17.70;54.30;;;;;;5055061;28;20402;-66
2022/09/03 04:18:31;;;;;;;1999.90;999.90;;;17.70;54.60;;;;;;5055250;28;20471;-66
2022/09/03 04:21:05;;;;;;;1999.90;999.90;;;17.70;55.00;;;;;;5055066;28;20413;-66
2022/09/03 04:23:32;;;;;;;1999.90;999.90;;;17.60;54.80;;;;;;5055040;28;20402;-66
2022/09/03 04:25:58;;;;;;;1999.90;999.90;;;17.60;55.90;;;;;;5054849;28;20398;-66
2022/09/03 04:28:23;;;;;;;1999.90;999.90;;;17.60;55.60;;;;;;5054984;28;20445;-66
2022/09/03 04:30:49;;;;;;;1999.90;999.90;;;17.70;55.80;;;;;;5054950;28;20452;-66
2022/09/03 04:33:15;;;;;;;1999.90;999.90;;;17.70;55.70;;;;;;5054953;28;20249;-66
2022/09/03 04:35:40;;;;;;;1999.90;999.90;;;17.70;55.80;;;;;;5054797;28;20258;-66
2022/09/03 04:38:06;;;;;;;1999.90;999.90;;;17.70;56.00;;;;;;5054247;28;20624;-66
2022/09/03 04:40:32;;;;;;;1999.90;999.90;;;17.70;56.10;;;;;;5054761;28;20175;-66
2022/09/03 04:42:58;;;;;;;1999.90;999.90;;;17.60;55.90;;;;;;5054675;28;20556;-66
2022/09/03 04:45:24;;;;;;;1999.90;999.90;;;17.60;56.30;;;;;;5054687;28;20442;-66
2022/09/03 04:48:01;;;;;;;1999.90;999.90;;;17.60;56.60;;;;;;5054281;28;20539;-66
2022/09/03 04:50:28;;;;;;;1999.90;999.90;;;17.60;57.10;;;;;;5054502;28;20439;-66
2022/09/03 04:52:58;;;;;;;1999.90;999.90;;;17.60;57.20;;;;;;5054552;28;20775;-66
2022/09/03 04:55:24;;;;;;;1999.90;999.90;;;17.60;57.40;;;;;;5054693;28;20406;-66
2022/09/03 04:57:50;;;;;;;1999.90;999.90;;;17.60;57.70;;;;;;5054149;28;20787;-66
2022/09/03 05:00:17;;;;;;;1999.90;999.90;;;17.60;58.10;;;;;;5054711;28;20922;-66
2022/09/03 05:02:47;;;;;;;1999.90;999.90;;;17.60;58.50;;;;;;5054426;28;20402;-66
2022/09/03 05:05:13;;;;;;;1999.90;999.90;;;17.50;58.90;;;;;;5054266;28;20816;-66
2022/09/03 05:07:40;;;;;;;1999.90;999.90;;;17.50;59.30;;;;;;5053862;28;20425;-66
2022/09/03 05:10:08;;;;;;;1999.90;999.90;;;17.50;59.40;;;;;;5054116;28;20453;-66
2022/09/03 05:12:34;;;;;;;1999.90;999.90;;;17.50;60.20;;;;;;5054887;28;20434;-65
2022/09/03 05:15:00;;;;;;;1999.90;999.90;;;17.50;60.60;;;;;;5061535;28;20409;-65
2022/09/03 05:17:26;;;;;;;1999.90;999.90;;;17.50;61.20;;;;;;5060908;28;20986;-66
2022/09/03 05:19:52;;;;;;;1999.90;999.90;;;17.50;61.60;;;;;;5061443;28;20404;-66
2022/09/03 05:22:20;;;;;;;1999.90;999.90;;;17.50;62.50;;;;;;5061538;28;20433;-65
2022/09/03 05:24:48;;;;;;;1999.90;999.90;;;17.50;62.50;;;;;;5061028;28;20411;-65
2022/09/03 05:27:15;;;;;;;1999.90;999.90;;;17.60;62.90;;;;;;5060283;28;20428;-65
2022/09/03 05:29:42;;;;;;;1999.90;999.90;;;17.50;63.10;;;;;;5056909;28;20489;-66
2022/09/03 05:32:08;;;;;;;1999.90;999.90;;;17.50;63.60;;;;;;5053779;28;20892;-66
2022/09/03 05:34:33;;;;;;;1999.90;999.90;;;17.60;64.00;;;;;;5053925;28;20471;-66
2022/09/03 05:36:59;;;;;;;1999.90;999.90;;;17.60;63.70;;;;;;5053219;28;20297;-66
2022/09/03 05:39:25;;;;;;;1999.90;999.90;;;17.70;64.30;;;;;;5056661;28;20172;-66
2022/09/03 05:41:51;;;;;;;1999.90;999.90;;;17.80;64.20;;;;;;5060861;28;20217;-66
2022/09/03 05:44:17;;;;;;;1999.90;999.90;;;17.80;64.00;;;;;;5060419;28;20540;-67
2022/09/03 05:46:43;;;;;;;1999.90;999.90;;;17.90;64.20;;;;;;5059633;28;20409;-65
2022/09/03 05:49:10;;;;;;;1999.90;999.90;;;18.00;65.10;;;;;;5059970;28;20402;-65
2022/09/03 05:51:38;;;;;;;1999.90;999.90;;;18.10;63.60;;;;;;5060720;28;20213;-66
2022/09/03 05:54:04;;;;;;;1999.90;999.90;;;18.20;63.30;;;;;;5060012;28;20588;-66
2022/09/03 05:56:31;;;;;;;1999.90;999.90;;;18.30;62.50;;;;;;5059667;28;20491;-66
2022/09/03 05:59:00;;;;;;;1999.90;999.90;;;18.30;62.20;;;;;;5060044;28;20217;-65
2022/09/03 06:01:33;;;;;;;1999.90;999.90;;;18.40;62.60;;;;;;5060094;28;20409;-66
2022/09/03 06:04:19;;;;;;;1999.90;999.90;;;18.50;61.30;;;;;;5059461;28;20397;-66
2022/09/03 06:06:46;;;;;;;1999.90;999.90;;;18.40;61.60;;;;;;5059040;28;20433;-65
2022/09/03 06:09:16;;;;;;;1999.90;999.90;;;18.50;61.60;;;;;;5059374;28;20435;-66
2022/09/03 06:11:42;;;;;;;1999.90;999.90;;;18.60;61.40;;;;;;5059489;28;20956;-67
2022/09/03 06:14:10;;;;;;;1999.90;999.90;;;18.70;60.90;;;;;;5041565;28;20421;-66
2022/09/03 06:16:37;;;;;;;1999.90;999.90;;;18.70;61.10;;;;;;5059059;28;20403;-66
2022/09/03 06:19:08;;;;;;;1999.90;999.90;;;18.70;60.50;;;;;;5059478;28;20407;-65
2022/09/03 06:21:35;;;;;;;1999.90;999.90;;;18.70;59.90;;;;;;5058798;28;20800;-67
2022/09/03 06:24:02;;;;;;;1999.90;999.90;;;18.70;59.80;;;;;;5059239;28;20939;-66
2022/09/03 06:26:28;;;;;;;1999.90;999.90;;;18.70;60.60;;;;;;5055943;28;20437;-66
2022/09/03 06:28:55;;;;;;;1999.90;999.90;;;18.70;60.30;;;;;;5051876;28;20520;-66
2022/09/03 06:31:21;;;;;;;1999.90;999.90;;;18.60;60.60;;;;;;5052694;28;20452;-66
2022/09/03 06:33:47;;;;;;;1999.90;999.90;;;18.70;60.80;;;;;;5052662;28;20407;-66
2022/09/03 06:36:16;;;;;;;1999.90;999.90;;;18.70;60.90;;;;;;5052345;28;20961;-66
2022/09/03 06:38:43;;;;;;;1999.90;999.90;;;18.80;60.70;;;;;;5052272;28;20538;-66
2022/09/03 06:41:11;;;;;;;1999.90;999.90;;;18.80;60.30;;;;;;5057230;28;20406;-66
2022/09/03 06:43:40;;;;;;;1999.90;999.90;;;18.90;60.10;;;;;;5059318;28;21082;-67
2022/09/03 06:46:07;;;;;;;1999.90;999.90;;;19.10;59.60;;;;;;5060004;28;20493;-65
2022/09/03 06:48:34;;;;;;;1999.90;999.90;;;19.10;60.30;;;;;;5055797;28;20828;-66
2022/09/03 06:51:02;;;;;;;1999.90;999.90;;;19.10;59.60;;;;;;5052250;28;20527;-66
2022/09/03 06:53:30;;;;;;;1999.90;999.90;;;19.20;59.40;;;;;;5052187;28;20398;-66
2022/09/03 06:55:58;;;;;;;1999.90;999.90;;;19.30;59.10;;;;;;5052047;28;20494;-66
2022/09/03 06:58:29;;;;;;;1999.90;999.90;;;19.40;58.70;;;;;;5052076;28;21065;-66
2022/09/03 07:01:05;;;;;;;1999.90;999.90;;;19.50;57.80;;;;;;5052382;28;20468;-66
2022/09/03 07:03:31;;;;;;;1999.90;999.90;;;19.50;57.40;;;;;;5052239;28;20401;-66
2022/09/03 07:06:17;;;;;;;1999.90;999.90;;;19.50;57.10;;;;;;5051916;28;20767;-66
2022/09/03 07:08:45;;;;;;;1999.90;999.90;;;19.60;56.70;;;;;;5051980;28;20456;-66
2022/09/03 07:11:16;;;;;;;1999.90;999.90;;;19.60;56.80;;;;;;5034526;28;20863;-66
2022/09/03 07:13:44;;;;;;;1999.90;999.90;;;19.70;56.60;;;;;;5051964;28;20418;-66
2022/09/03 07:16:12;;;;;;;1999.90;999.90;;;19.80;56.20;;;;;;5051472;28;20398;-66
2022/09/03 07:18:39;;;;;;;1999.90;999.90;;;19.90;55.50;;;;;;5051803;28;20993;-66
2022/09/03 07:21:07;;;;;;;1999.90;999.90;;;19.90;54.80;;;;;;5051924;28;20493;-66
2022/09/03 07:23:35;;;;;;;1999.90;999.90;;;20.00;54.30;;;;;;5052016;28;20754;-66
2022/09/03 07:26:03;;;;;;;1999.90;999.90;;;20.00;54.00;;;;;;5051525;28;20421;-65
2022/09/03 07:28:31;;;;;;;1999.90;999.90;;;20.00;53.80;;;;;;5058139;28;20426;-66
2022/09/03 07:31:06;;;;;;;1999.90;999.90;;;20.00;53.50;;;;;;5035894;28;20483;-65
2022/09/03 07:33:32;;;;;;;1999.90;999.90;;;20.10;53.00;;;;;;5051826;28;20401;-65
2022/09/03 07:36:07;;;;;;;1999.90;999.90;;;20.10;52.30;;;;;;5051545;28;20403;-65
2022/09/03 07:38:33;;;;;;;1999.90;999.90;;;20.00;52.70;;;;;;5048747;28;20511;-65
2022/09/03 07:41:01;;;;;;;1999.90;999.90;;;20.10;52.80;;;;;;5055320;28;20553;-66
2022/09/03 07:43:28;;;;;;;1999.90;999.90;;;20.00;52.50;;;;;;5055470;28;20891;-65
2022/09/03 07:45:56;;;;;;;1999.90;999.90;;;20.00;52.70;;;;;;5054785;28;20463;-66
2022/09/03 07:48:23;;;;;;;1999.90;999.90;;;19.90;52.60;;;;;;5055221;28;20429;-66
2022/09/03 07:50:48;;;;;;;1999.90;999.90;;;19.90;53.80;;;;;;5055213;28;20453;-66
2022/09/03 07:53:19;;;;;;;1999.90;999.90;;;19.90;52.90;;;;;;5054807;28;20747;-66
2022/09/03 07:55:45;;;;;;;1999.90;999.90;;;19.90;53.10;;;;;;5055194;28;20674;-66
2022/09/03 07:58:12;;;;;;;1999.90;999.90;;;19.90;53.70;;;;;;5054671;28;20995;-66
2022/09/03 08:00:39;;;;;;;1999.90;999.90;;;19.90;53.60;;;;;;5054805;28;20409;-66
2022/09/03 08:03:07;;;;;;;1999.90;999.90;;;19.90;53.80;;;;;;5055338;28;20402;-66
2022/09/03 08:05:35;;;;;;;1999.90;999.90;;;19.80;54.40;;;;;;5055346;28;20414;-66
2022/09/03 08:08:02;;;;;;;1999.90;999.90;;;19.70;54.90;;;;;;5062941;28;20435;-66
2022/09/03 08:10:30;;;;;;;1999.90;999.90;;;19.80;55.50;;;;;;5055608;28;20441;-66
2022/09/03 08:12:58;;;;;;;1999.90;999.90;;;19.80;56.10;;;;;;5054849;28;20455;-66
2022/09/03 08:15:25;;;;;;;1999.90;999.90;;;19.90;55.60;;;;;;5054516;28;20405;-65
2022/09/03 08:17:51;;;;;;;1999.90;999.90;;;20.00;56.50;;;;;;5054354;28;20426;-65
2022/09/03 08:20:16;;;;;;;1999.90;999.90;;;20.10;56.20;;;;;;5054801;28;20412;-65
2022/09/03 08:22:42;;;;;;;1999.90;999.90;;;20.20;56.30;;;;;;5054249;28;20176;-65
2022/09/03 08:25:08;;;;;;;1999.90;999.90;;;20.30;56.10;;;;;;5054636;28;20421;-65
2022/09/03 08:27:34;;;;;;;1999.90;999.90;;;20.40;57.00;;;;;;5054256;28;20755;-65
2022/09/03 08:30:00;;;;;;;1999.90;999.90;;;20.70;57.50;;;;;;5054218;28;20572;-65
2022/09/03 08:32:26;;;;;;;1999.90;999.90;;;21.00;58.70;;;;;;5054631;28;20416;-66
2022/09/03 08:34:51;;;;;;;1999.90;999.90;;;21.50;57.80;;;;;;5054599;28;20395;-66
2022/09/03 08:37:17;;;;;;;1999.90;999.90;;;21.90;57.20;;;;;;5053622;28;20636;-65
2022/09/03 08:39:44;;;;;;;1999.90;999.90;;;22.20;58.00;;;;;;5054388;28;20172;-65
2022/09/03 08:42:27;;;;;;;1999.90;999.90;;;22.70;56.70;;;;;;5054311;28;20405;-66
2022/09/03 08:45:01;;;;;;;1999.90;999.90;;;23.00;55.50;;;;;;5054010;28;20479;-66
2022/09/03 08:47:45;;;;;;;1999.90;999.90;;;23.30;55.10;;;;;;5054031;28;20418;-66
2022/09/03 08:50:26;;;;;;;1999.90;999.90;;;23.40;54.10;;;;;;5062146;28;20515;-65
2022/09/03 08:53:10;;;;;;;1999.90;999.90;;;23.50;51.70;;;;;;5066764;28;20456;-65
2022/09/03 08:55:57;;;;;;;1999.90;999.90;;;23.50;52.30;;;;;;5038981;28;20422;-64
2022/09/03 08:58:37;;;;;;;1999.90;999.90;;;23.60;51.50;;;;;;5036745;28;20402;-66
2022/09/03 09:01:10;;;;;;;1999.90;999.90;;;23.60;50.80;;;;;;5034127;28;20494;-66
2022/09/03 09:04:00;;;;;;;1999.90;999.90;;;23.40;51.90;;;;;;5033092;28;20886;-66
2022/09/03 09:06:50;;;;;;;1999.90;999.90;;;23.40;52.30;;;;;;5017305;28;20402;-66
2022/09/03 09:09:37;;;;;;;1999.90;999.90;;;23.30;53.20;;;;;;5033384;28;20415;-66
2022/09/03 09:12:22;;;;;;;1999.90;999.90;;;23.20;52.80;;;;;;5033435;28;20446;-66
2022/09/03 09:15:05;;;;;;;1999.90;999.90;;;23.10;52.30;;;;;;5032836;28;20373;-66
2022/09/03 09:17:42;;;;;;;1999.90;999.90;;;23.10;52.50;;;;;;5032595;28;20906;-65
2022/09/03 09:20:23;;;;;;;1999.90;999.90;;;23.20;51.80;;;;;;5033401;28;20856;-65
2022/09/03 09:23:02;;;;;;;1999.90;999.90;;;23.30;51.20;;;;;;5033191;28;20446;-66
2022/09/03 09:25:31;;;;;;;1999.90;999.90;;;23.30;50.50;;;;;;5032910;28;20387;-65
2022/09/03 09:28:03;;;;;;;1999.90;999.90;;;23.30;51.00;;;;;;5032210;28;20472;-65
2022/09/03 09:30:31;;;;;;;1999.90;999.90;;;23.50;50.80;;;;;;5032916;28;20771;-65
2022/09/03 09:32:56;;;;;;;1999.90;999.90;;;23.80;50.00;;;;;;5032796;28;20774;-66
2022/09/03 09:35:23;;;;;;;1999.90;999.90;;;24.10;49.00;;;;;;5032351;28;20381;-66
2022/09/03 09:37:54;;;;;;;1999.90;999.90;;;24.40;48.80;;;;;;5032422;28;20243;-66
2022/09/03 09:40:38;;;;;;;1999.90;999.90;;;24.70;47.60;;;;;;5033155;28;20408;-66
2022/09/03 09:43:06;;;;;;;1999.90;999.90;;;24.90;47.00;;;;;;5032620;28;20409;-66
2022/09/03 09:45:34;;;;;;;1999.90;999.90;;;25.10;46.30;;;;;;5032669;28;20862;-66
2022/09/03 09:48:01;;;;;;;1999.90;999.90;;;25.30;45.70;;;;;;5032254;28;20427;-66
2022/09/03 09:50:27;;;;;;;1999.90;999.90;;;25.60;45.20;;;;;;5031933;28;20424;-66
2022/09/03 09:53:13;;;;;;;1999.90;999.90;;;25.80;43.60;;;;;;5032448;28;20758;-66
2022/09/03 09:55:56;;;;;;;1999.90;999.90;;;26.00;42.80;;;;;;5033741;28;20626;-65
2022/09/03 09:58:27;;;;;;;1999.90;999.90;;;26.10;43.10;;;;;;5033451;28;20445;-66
2022/09/03 10:01:17;;;;;;;1999.90;999.90;;;26.30;41.90;;;;;;5033134;28;20494;-65
2022/09/03 10:03:55;;;;;;;1999.90;999.90;;;26.30;40.70;;;;;;5031982;28;20865;-65
2022/09/03 10:09:15;;;;;;;1999.90;999.90;;;26.30;39.70;;;;;;5033841;28;20456;-65
2022/09/03 10:12:23;;;;;;;1999.90;999.90;;;26.10;40.40;;;;;;5033500;28;20529;-64
2022/09/03 10:14:55;;;;;;;1999.90;999.90;;;25.90;40.80;;;;;;5032031;28;20760;-65
2022/09/03 10:17:28;;;;;;;1999.90;999.90;;;25.80;41.80;;;;;;5033656;28;20426;-65
2022/09/03 10:20:32;;;;;;;1999.90;999.90;;;25.80;41.30;;;;;;5033736;28;20434;-65
2022/09/03 10:23:03;;;;;;;1999.90;999.90;;;25.70;42.10;;;;;;5033926;28;20770;-66
2022/09/03 10:26:10;;;;;;;1999.90;999.90;;;25.70;41.60;;;;;;5033316;28;20374;-65
2022/09/03 10:28:40;;;;;;;1999.90;999.90;;;25.70;41.60;;;;;;5021900;28;20818;-66
2022/09/03 10:31:30;;;;;;;1999.90;999.90;;;25.60;41.50;;;;;;5034123;28;20682;-66
2022/09/03 10:34:23;;;;;;;1999.90;999.90;;;25.50;41.80;;;;;;5034785;28;20417;-66
2022/09/03 10:36:58;;;;;;;1999.90;999.90;;;25.40;41.80;;;;;;5033527;28;20391;-66
2022/09/03 10:39:42;;;;;;;1999.90;999.90;;;25.30;42.90;;;;;;5034072;28;20373;-65
2022/09/03 10:42:53;;;;;;;1999.90;999.90;;;25.20;43.20;;;;;;5033606;28;20978;-66
2022/09/03 10:45:38;;;;;;;1999.90;999.90;;;25.10;44.20;;;;;;5034388;28;20409;-65
2022/09/03 10:48:23;;;;;;;1999.90;999.90;;;25.20;44.60;;;;;;5033540;28;20482;-65
2022/09/03 10:50:56;;;;;;;1999.90;999.90;;;25.50;44.90;;;;;;5033773;28;20475;-65
2022/09/03 10:53:53;;;;;;;1999.90;999.90;;;25.90;44.90;;;;;;5034156;28;20417;-65
2022/09/03 10:56:21;;;;;;;1999.90;999.90;;;26.40;43.60;;;;;;5033650;28;20366;-65
2022/09/03 10:58:59;;;;;;;1999.90;999.90;;;26.70;42.50;;;;;;5033085;28;20427;-65
2022/09/03 11:01:25;;;;;;;1999.90;999.90;;;26.90;42.50;;;;;;5033414;28;20369;-66
2022/09/03 11:04:18;;;;;;;1999.90;999.90;;;27.20;42.00;;;;;;5032370;28;20497;-65
2022/09/03 11:07:00;;;;;;;1999.90;999.90;;;27.40;41.30;;;;;;5031800;28;20168;-66
2022/09/03 11:09:30;;;;;;;1999.90;999.90;;;27.80;40.60;;;;;;5033127;28;20406;-66
2022/09/03 11:12:10;;;;;;;1999.90;999.90;;;28.10;39.50;;;;;;5031637;28;20495;-66
2022/09/03 11:14:44;;;;;;;1999.90;999.90;;;28.50;37.90;;;;;;5031671;28;20971;-66
2022/09/03 11:17:22;;;;;;;1999.90;999.90;;;28.60;38.20;;;;;;5031382;28;20485;-66
2022/09/03 11:19:59;;;;;;;1999.90;999.90;;;28.90;37.10;;;;;;5030914;28;20622;-65
2022/09/03 11:22:26;;;;;;;1999.90;999.90;;;29.20;35.90;;;;;;5031671;28;20411;-66
2022/09/03 11:24:59;;;;;;;1999.90;999.90;;;29.50;35.20;;;;;;5031914;28;20403;-65
2022/09/03 11:27:40;;;;;;;1999.90;999.90;;;29.80;35.00;;;;;;5030618;28;20461;-65
2022/09/03 11:30:13;;;;;;;1999.90;999.90;;;29.90;33.70;;;;;;5031452;28;20399;-65
2022/09/03 11:32:39;;;;;;;1999.90;999.90;;;30.20;32.20;;;;;;5031690;28;20399;-66
2022/09/03 11:35:14;;;;;;;1999.90;999.90;;;30.10;31.10;;;;;;5031094;28;20858;-66
2022/09/03 11:38:00;;;;;;;1999.90;999.90;;;30.10;31.90;;;;;;5031032;28;20450;-65
2022/09/03 11:40:42;;;;;;;1999.90;999.90;;;30.30;31.00;;;;;;5031663;28;20430;-67
2022/09/03 11:43:28;;;;;;;1999.90;999.90;;;30.40;31.20;;;;;;5030589;28;20399;-65
2022/09/03 11:46:13;;;;;;;1999.90;999.90;;;30.30;30.00;;;;;;5030775;28;20384;-65
2022/09/03 11:48:42;;;;;;;1999.90;999.90;;;30.10;30.60;;;;;;5031075;28;20418;-66
2022/09/03 11:51:36;;;;;;;1999.90;999.90;;;30.40;31.00;;;;;;5031789;28;20434;-66
2022/09/03 11:54:23;;;;;;;1999.90;999.90;;;31.10;30.00;;;;;;5031153;28;20427;-66
2022/09/03 11:56:49;;;;;;;1999.90;999.90;;;31.90;28.30;;;;;;5030995;28;20405;-67
2022/09/03 11:59:25;;;;;;;1999.90;999.90;;;32.70;27.10;;;;;;5031691;28;20411;-66
2022/09/03 12:02:02;;;;;;;1999.90;999.90;;;33.50;25.30;;;;;;5031218;28;20164;-66
2022/09/03 12:04:48;;;;;;;1999.90;999.90;;;34.10;24.20;;;;;;5031401;28;20496;-66
2022/09/03 12:07:46;;;;;;;1999.90;999.90;;;34.80;22.00;;;;;;5031141;28;20501;-66
2022/09/03 12:10:19;;;;;;;1999.90;999.90;;;35.10;21.00;;;;;;4987527;28;20425;-66
2022/09/03 12:12:52;;;;;;;1999.90;999.90;;;35.50;20.10;;;;;;5031487;28;20395;-66
2022/09/03 12:15:27;;;;;;;1999.90;999.90;;;35.80;19.60;;;;;;5031596;28;20512;-66
2022/09/03 12:18:18;;;;;;;1999.90;999.90;;;36.20;18.10;;;;;;5031094;28;20426;-66
2022/09/03 12:21:04;;;;;;;1999.90;999.90;;;36.60;17.20;;;;;;5031414;28;20403;-65
2022/09/03 12:23:38;;;;;;;1999.90;999.90;;;36.70;16.40;;;;;;5031500;28;20457;-65
2022/09/03 12:26:07;;;;;;;1999.90;999.90;;;37.20;15.90;;;;;;5031758;28;20776;-66
2022/09/03 12:28:37;;;;;;;1999.90;999.90;;;37.50;15.00;;;;;;5034955;28;20427;-65
2022/09/03 12:31:21;;;;;;;1999.90;999.90;;;37.80;14.30;;;;;;5034861;28;20443;-65